Time;durP1;ratioP1;P1;durP2;ratioP2;P2;SDS_P1;SDS_P2;PMS_P1;PMS_P2;Temp;Humidity;BMP_temperature;BMP_pressure;BME280_temperature;BME280_humidity;BME280_pressure;Samples;Min_cycle;Max_cycle;Signal;HPM_P1;HPM_P2
2022/08/12 00:43:16;;;;;;;8.13;3.28;;;;;;;17.24;77.10;101774.66;2082500;28;20056;-68
2022/08/12 00:44:21;;;;;;;10.52;3.65;;;;;;;17.25;77.06;101779.03;2096317;28;20048;-68
2022/08/12 00:46:29;;;;;;;5.68;2.80;;;;;;;17.30;76.91;101776.22;2087281;28;20060;-66
2022/08/12 00:47:02;;;;;;;6.03;3.00;;;;;;;17.31;76.61;101775.13;2076648;28;20044;-67
2022/08/12 00:48:04;;;;;;;6.43;3.45;;;;;;;17.29;76.28;101774.59;2073166;28;20061;-68
2022/08/12 00:49:09;;;;;;;6.43;2.90;;;;;;;17.21;77.06;101767.09;2080428;28;20029;-68
2022/08/12 00:50:20;;;;;;;8.80;3.28;;;;;;;17.25;77.23;101775.50;2087510;28;20033;-67
2022/08/12 00:52:04;;;;;;;7.05;3.28;;;;;;;17.27;76.90;101778.72;2080918;28;20424;-68
2022/08/12 00:52:54;;;;;;;7.80;2.97;;;;;;;17.27;77.30;101771.34;2091472;28;20040;-67
2022/08/12 00:54:01;;;;;;;8.00;2.80;;;;;;;17.29;77.42;101777.31;2087550;28;20283;-68
2022/08/12 00:55:08;;;;;;;7.68;2.70;;;;;;;17.29;77.80;101773.81;2088041;28;20044;-68
2022/08/12 00:56:13;;;;;;;8.73;2.90;;;;;;;17.34;78.15;101774.53;2087056;28;20067;-68
2022/08/12 00:57:28;;;;;;;5.60;2.80;;;;;;;17.41;78.29;101776.09;2079466;28;20524;-69
2022/08/12 00:58:34;;;;;;;7.95;3.22;;;;;;;17.43;78.29;101774.66;2081329;28;20057;-68
2022/08/12 00:59:45;;;;;;;7.53;3.15;;;;;;;17.45;77.82;101775.19;2080463;28;20044;-68
2022/08/12 01:00:50;;;;;;;5.85;3.00;;;;;;;17.44;77.45;101778.22;2097260;28;20059;-68
2022/08/12 01:01:59;;;;;;;8.00;2.92;;;;;;;17.41;77.22;101774.16;2103478;28;20028;-68
2022/08/12 01:03:05;;;;;;;6.35;2.80;;;;;;;17.43;77.37;101768.41;2095446;28;20063;-67
2022/08/12 01:12:26;;;;;;;5.55;3.10;;;;;;;17.44;77.17;101770.06;2087641;28;20037;-68
2022/08/12 01:13:32;;;;;;;7.50;2.67;;;;;;;17.44;77.04;101770.06;2079748;28;20385;-68
2022/08/12 01:14:36;;;;;;;7.63;2.78;;;;;;;17.42;76.70;101772.25;2088418;28;20040;-68
2022/08/12 01:15:42;;;;;;;4.60;2.97;;;;;;;17.31;76.67;101766.97;2095907;28;20040;-68
2022/08/12 01:16:58;;;;;;;5.05;2.90;;;;;;;17.32;76.48;101765.06;2095660;28;20487;-68
2022/08/12 01:18:00;;;;;;;7.22;3.13;;;;;;;17.25;76.74;101768.16;2096674;28;20032;-68
2022/08/12 01:19:02;;;;;;;5.93;3.20;;;;;;;17.23;76.54;101764.91;2095902;28;20048;-69
2022/08/12 01:20:13;;;;;;;7.60;3.05;;;;;;;17.17;76.77;101768.78;2079516;28;20048;-68
2022/08/12 01:21:26;;;;;;;6.88;2.70;;;;;;;17.16;76.70;101763.66;2072149;28;20041;-69
2022/08/12 01:22:56;;;;;;;6.20;2.95;;;;;;;17.16;76.44;101766.38;2078660;28;20095;-68
2022/08/12 01:24:34;;;;;;;5.43;2.53;;;;;;;17.14;76.84;101766.66;2091883;28;20044;-68
2022/08/12 01:25:46;;;;;;;6.20;2.78;;;;;;;17.10;77.18;101769.16;2087245;28;20047;-68
2022/08/12 01:26:57;;;;;;;7.93;3.50;;;;;;;17.13;77.12;101765.84;2097705;28;20107;-69
2022/08/12 01:28:05;;;;;;;9.35;2.90;;;;;;;17.09;77.04;101764.03;2086248;28;20052;-69
2022/08/12 01:29:14;;;;;;;8.25;2.70;;;;;;;17.10;77.15;101765.63;2082002;28;20484;-69
2022/08/12 01:30:18;;;;;;;7.20;2.78;;;;;;;17.08;76.94;101762.41;2079963;28;20049;-69
2022/08/12 01:31:23;;;;;;;7.05;2.90;;;;;;;17.07;77.41;101769.75;2079458;28;20041;-69
2022/08/12 01:32:36;;;;;;;8.27;2.85;;;;;;;17.08;77.66;101765.91;2088180;28;20397;-68
2022/08/12 01:34:02;;;;;;;6.57;2.70;;;;;;;17.08;78.15;101770.53;2098089;28;20526;-68
2022/08/12 01:35:12;;;;;;;3.93;2.57;;;;;;;17.07;78.50;101768.94;2095892;28;20040;-68
2022/08/12 01:36:17;;;;;;;4.72;2.25;;;;;;;17.06;78.61;101770.84;2096543;28;20283;-68
2022/08/12 01:37:24;;;;;;;5.68;2.22;;;;;;;17.06;78.98;101770.06;2105015;28;20035;-68
2022/08/12 01:38:28;;;;;;;4.38;2.55;;;;;;;17.02;78.36;101769.00;2104316;28;20511;-69
2022/08/12 01:39:38;;;;;;;3.92;2.53;;;;;;;16.94;78.92;101766.94;2095777;28;20375;-69
2022/08/12 01:40:50;;;;;;;7.38;2.58;;;;;;;16.97;79.08;101771.81;2089071;28;20187;-69
2022/08/12 01:41:58;;;;;;;7.82;2.60;;;;;;;16.99;78.81;101770.41;2097520;28;20039;-69
2022/08/12 01:43:04;;;;;;;;;;;;;;;16.98;78.99;101768.78;2104959;28;20056;-69
2022/08/12 01:44:11;;;;;;;5.15;2.50;;;;;;;17.00;79.27;101768.50;2104662;28;19915;-69
2022/08/12 01:45:17;;;;;;;3.78;2.30;;;;;;;16.98;79.44;101765.25;2107458;28;20044;-69
2022/08/12 01:46:50;;;;;;;4.47;2.33;;;;;;;17.01;79.54;101772.81;2095218;28;20048;-69
2022/08/12 01:48:13;;;;;;;4.05;2.20;;;;;;;17.02;79.42;101775.25;2091971;28;20040;-68
2022/08/12 01:49:29;;;;;;;4.47;2.90;;;;;;;17.03;79.27;101771.44;2084721;28;20037;-68
2022/08/12 01:51:00;;;;;;;3.83;2.10;;;;;;;17.05;79.47;101769.22;2084097;28;20512;-69
2022/08/12 01:52:05;;;;;;;6.88;2.30;;;;;;;17.07;79.77;101766.22;2096319;28;20044;-69
2022/08/12 01:53:10;;;;;;;6.15;2.10;;;;;;;17.05;79.82;101765.69;2095629;28;20055;-69
2022/08/12 01:54:14;;;;;;;5.80;2.40;;;;;;;17.04;80.15;101772.25;2095333;28;20514;-69
2022/08/12 01:55:19;;;;;;;3.38;2.20;;;;;;;17.06;80.20;101772.78;2095508;28;20040;-68
2022/08/12 01:56:29;;;;;;;4.47;2.25;;;;;;;17.07;80.29;101768.94;2087010;28;20068;-69
2022/08/12 01:57:43;;;;;;;5.45;2.25;;;;;;;17.07;80.17;101768.94;2087958;28;20056;-68
2022/08/12 02:00:18;;;;;;;4.75;2.22;;;;;;;17.07;80.67;101769.75;2087396;28;20550;-68
2022/08/12 02:01:33;;;;;;;6.75;2.17;;;;;;;17.06;80.61;101767.34;2095957;28;20059;-69
2022/08/12 02:02:52;;;;;;;4.63;2.00;;;;;;;17.03;80.94;101759.78;2093622;28;20036;-69
2022/08/12 02:11:45;;;;;;;3.85;2.10;;;;;;;17.11;81.63;101761.81;2095567;28;20507;-68
2022/08/12 02:13:13;;;;;;;4.28;2.20;;;;;;;17.09;81.89;101766.75;2096616;28;20043;-68
2022/08/12 02:14:23;;;;;;;2.97;1.83;;;;;;;17.14;82.00;101762.03;2087513;28;20444;-69
2022/08/12 02:16:16;;;;;;;4.72;2.00;;;;;;;17.18;82.29;101761.44;2081699;28;20048;-68
2022/08/12 02:17:55;;;;;;;5.07;2.15;;;;;;;17.21;82.14;101761.66;2062319;28;20519;-68
2022/08/12 02:19:15;;;;;;;;;;;;;;;17.17;81.71;101766.06;2081275;28;20029;-68
2022/08/12 02:20:20;;;;;;;5.82;2.20;;;;;;;17.19;81.49;101763.88;2089561;28;19920;-69
2022/08/12 02:21:33;;;;;;;4.40;1.85;;;;;;;17.20;81.20;101762.78;2087814;28;20388;-69
2022/08/12 02:22:43;;;;;;;4.78;2.15;;;;;;;17.20;81.12;101762.78;2080526;28;20404;-68
2022/08/12 02:23:51;;;;;;;2.92;1.90;;;;;;;17.21;81.34;101767.09;2089387;28;20044;-67
2022/08/12 02:25:05;;;;;;;3.42;2.10;;;;;;;17.22;81.34;101768.72;2095059;28;20036;-68
2022/08/12 02:26:17;;;;;;;3.63;2.35;;;;;;;17.20;80.72;101770.94;2089940;28;20040;-68
2022/08/12 02:27:26;;;;;;;6.07;2.35;;;;;;;17.19;80.36;101771.22;2103496;28;20415;-67
2022/08/12 02:28:32;;;;;;;2.83;1.90;;;;;;;17.18;80.22;101766.88;2096927;28;20036;-68
2022/08/12 02:29:41;;;;;;;4.53;1.95;;;;;;;17.18;80.84;101767.72;2095551;28;20416;-68
2022/08/12 02:30:47;;;;;;;4.82;1.73;;;;;;;17.18;81.29;101773.16;2089005;28;20048;-68
2022/08/12 02:31:51;;;;;;;4.38;2.20;;;;;;;17.18;81.33;101764.16;2080732;28;20040;-67
2022/08/12 02:32:53;;;;;;;3.53;1.90;;;;;;;17.17;81.53;101768.78;2100854;28;20044;-67
2022/08/12 02:34:00;;;;;;;3.42;1.90;;;;;;;17.14;81.59;101772.09;2097028;28;20040;-67
2022/08/12 02:35:04;;;;;;;3.15;1.83;;;;;;;17.12;81.15;101775.13;2081385;28;20045;-68
2022/08/12 02:36:08;;;;;;;4.30;2.10;;;;;;;17.14;81.72;101772.09;2097283;28;20052;-67
2022/08/12 02:37:14;;;;;;;4.60;2.20;;;;;;;17.17;81.86;101773.44;2112650;28;20044;-68
2022/08/12 02:38:20;;;;;;;4.05;1.98;;;;;;;17.17;81.81;101778.88;2088138;28;20108;-68
2022/08/12 02:39:26;;;;;;;6.85;1.83;;;;;;;17.17;81.76;101776.16;2090742;28;20064;-68
2022/08/12 02:40:35;;;;;;;3.43;1.73;;;;;;;17.18;81.84;101778.59;2096130;28;20052;-68
2022/08/12 02:41:44;;;;;;;3.83;1.80;;;;;;;17.18;81.44;101777.75;2084521;28;20284;-68
2022/08/12 02:42:55;;;;;;;3.45;1.73;;;;;;;17.16;81.81;101769.91;2089678;28;20469;-68
2022/08/12 02:44:07;;;;;;;5.65;1.90;;;;;;;17.17;81.59;101782.38;2089017;28;20043;-67
2022/08/12 02:45:21;;;;;;;5.32;2.33;;;;;;;17.17;81.66;101766.06;2094865;28;20052;-67
2022/08/12 02:46:33;;;;;;;5.43;2.50;;;;;;;17.18;81.76;101775.88;2080561;28;20033;-67
2022/08/12 02:47:42;;;;;;;3.08;1.85;;;;;;;17.16;82.27;101774.53;2085039;28;20030;-67
2022/08/12 02:48:54;;;;;;;3.00;1.90;;;;;;;17.14;82.18;101778.34;2095063;28;20090;-67
2022/08/12 02:50:01;;;;;;;3.95;2.00;;;;;;;17.16;82.10;101786.22;2090564;28;20037;-67
2022/08/12 02:51:10;;;;;;;2.65;2.03;;;;;;;17.17;82.32;101779.66;2097638;28;20028;-67
2022/08/12 02:52:17;;;;;;;8.02;2.30;;;;;;;17.16;82.64;101778.06;2088974;28;20055;-67
2022/08/12 02:53:25;;;;;;;4.35;1.90;;;;;;;17.16;82.70;101783.50;2080784;28;20045;-68
2022/08/12 02:54:33;;;;;;;5.40;1.80;;;;;;;17.14;82.17;101778.34;2098436;28;20040;-67
2022/08/12 02:55:35;;;;;;;5.47;1.88;;;;;;;17.13;82.07;101781.34;2104407;28;20036;-67
2022/08/12 02:56:40;;;;;;;3.47;1.90;;;;;;;17.13;82.21;101776.72;2088898;28;20505;-67
2022/08/12 02:57:43;;;;;;;2.95;1.90;;;;;;;17.11;82.94;101784.34;2089011;28;20032;-67
2022/08/12 02:58:45;;;;;;;3.08;1.98;;;;;;;17.14;83.58;101777.53;2088638;28;20037;-69
2022/08/12 02:59:52;;;;;;;2.90;1.70;;;;;;;17.17;83.67;101782.38;2088947;28;20063;-68
2022/08/12 03:00:55;;;;;;;5.10;2.00;;;;;;;17.18;83.27;101783.19;2096790;28;20032;-67
2022/08/12 03:02:02;;;;;;;2.88;1.70;;;;;;;17.19;83.21;101779.38;2088277;28;20041;-69
2022/08/12 03:03:07;;;;;;;4.22;1.88;;;;;;;17.16;82.79;101780.78;2088819;28;20469;-69
2022/08/12 03:04:13;;;;;;;4.15;2.20;;;;;;;17.18;82.85;101778.59;2095710;28;20538;-66
2022/08/12 03:05:22;;;;;;;3.47;1.90;;;;;;;17.18;83.45;101775.03;2088992;28;20041;-69
2022/08/12 03:06:33;;;;;;;5.13;2.45;;;;;;;17.13;83.78;101775.94;2090215;28;20049;-68
2022/08/12 03:07:45;;;;;;;2.97;1.60;;;;;;;17.11;84.21;101776.19;2105135;28;20036;-68
2022/08/12 03:08:52;;;;;;;4.07;1.85;;;;;;;17.11;84.29;101773.47;2087199;28;20039;-68
2022/08/12 03:10:08;;;;;;;5.10;1.67;;;;;;;17.11;83.65;101776.19;2087607;28;20056;-67
2022/08/12 03:11:38;;;;;;;4.03;1.92;;;;;;;17.09;83.99;101772.19;2105263;28;20047;-68
2022/08/12 03:12:43;;;;;;;5.85;2.05;;;;;;;17.08;84.44;101773.25;2096890;28;20044;-68
2022/08/12 03:13:50;;;;;;;1.90;1.50;;;;;;;17.11;84.34;101769.97;2097199;28;20032;-68
2022/08/12 03:14:55;;;;;;;4.32;2.10;;;;;;;17.15;84.46;101773.72;2105385;28;20028;-68
2022/08/12 03:15:58;;;;;;;3.13;1.70;;;;;;;17.17;84.43;101776.94;2095892;28;20049;-68
2022/08/12 03:17:30;;;;;;;3.15;2.00;;;;;;;17.17;84.58;101776.94;2089079;28;20037;-68
2022/08/12 03:18:38;;;;;;;4.10;2.00;;;;;;;17.18;84.52;101775.88;2052004;28;20050;-67
2022/08/12 03:19:45;;;;;;;3.28;1.80;;;;;;;17.21;84.39;101774.44;2089360;28;20044;-68
2022/08/12 03:20:49;;;;;;;3.30;1.95;;;;;;;17.22;84.36;101776.88;2089102;28;20412;-68
2022/08/12 03:21:55;;;;;;;2.85;1.90;;;;;;;17.21;83.85;101777.97;2097131;28;20051;-68
2022/08/12 03:23:02;;;;;;;3.55;1.98;;;;;;;17.23;84.01;101775.78;2105008;28;20051;-68
2022/08/12 03:24:15;;;;;;;3.33;2.03;;;;;;;17.23;84.15;101780.41;2104895;28;20044;-68
2022/08/12 03:25:23;;;;;;;2.83;1.90;;;;;;;17.22;83.62;101776.88;2105183;28;20032;-68
2022/08/12 03:26:29;;;;;;;3.40;1.90;;;;;;;17.23;83.07;101781.22;2096941;28;20059;-68
2022/08/12 03:27:31;;;;;;;2.47;1.75;;;;;;;17.20;82.64;101775.56;2105273;28;20039;-69
2022/08/12 03:28:49;;;;;;;4.38;1.80;;;;;;;17.20;82.53;101781.00;2108297;28;20074;-68
2022/08/12 03:30:00;;;;;;;2.45;1.70;;;;;;;17.19;82.57;101782.91;2096477;28;20092;-68
2022/08/12 03:31:09;;;;;;;3.55;1.73;;;;;;;17.19;82.44;101785.63;2097803;28;20479;-68
2022/08/12 03:32:13;;;;;;;3.38;1.60;;;;;;;17.19;81.94;101791.06;2105843;28;20040;-68
2022/08/12 03:33:18;;;;;;;2.97;1.60;;;;;;;17.19;82.01;101785.63;2088034;28;20064;-68
2022/08/12 03:34:28;;;;;;;4.63;1.60;;;;;;;17.18;81.67;101780.47;2072712;28;20049;-68
2022/08/12 03:35:33;;;;;;;3.28;1.67;;;;;;;17.20;81.54;101781.78;2091093;28;20503;-69
2022/08/12 03:36:40;;;;;;;4.15;1.83;;;;;;;17.22;81.25;101778.81;2096801;28;20452;-69
2022/08/12 03:37:44;;;;;;;2.97;1.88;;;;;;;17.27;81.10;101793.09;2089321;28;20036;-69
2022/08/12 03:41:58;;;;;;;5.15;1.70;;;;;;;17.47;80.38;101785.78;2091335;28;20036;-67
2022/08/12 04:00:23;;;;;;;6.85;2.13;;;;;;;18.32;77.89;101775.69;2096072;28;20038;-68
2022/08/12 04:01:28;;;;;;;3.80;2.00;;;;;;;18.37;77.61;101775.56;2098322;28;20155;-68
2022/08/12 04:02:34;;;;;;;4.32;1.83;;;;;;;18.45;77.31;101769.44;2105522;28;20463;-68
2022/08/12 04:03:52;;;;;;;7.95;2.05;;;;;;;18.52;77.07;101778.81;2103936;28;20050;-68
2022/08/12 04:04:54;;;;;;;5.72;2.10;;;;;;;18.59;76.56;101772.94;2100640;28;20028;-67
2022/08/12 04:05:56;;;;;;;7.20;2.45;;;;;;;18.62;76.61;101769.63;2095940;28;20044;-68
2022/08/12 04:07:00;;;;;;;4.47;1.83;;;;;;;18.69;76.51;101772.75;2096512;28;20020;-68
2022/08/12 04:08:10;;;;;;;10.52;2.20;;;;;;;18.75;76.32;101763.38;2103873;28;20511;-68
2022/08/12 04:09:15;;;;;;;3.75;2.00;;;;;;;18.82;75.91;101771.16;2104183;28;20575;-68
2022/08/12 04:10:17;;;;;;;3.97;2.10;;;;;;;18.88;75.95;101763.66;2104975;28;20084;-68
2022/08/12 04:13:15;;;;;;;5.10;1.90;;;;;;;19.05;75.62;101777.47;2105201;28;20467;-68
2022/08/12 04:14:19;;;;;;;4.97;2.25;;;;;;;19.18;75.10;101779.38;2096419;28;20043;-68
2022/08/12 04:15:27;;;;;;;6.65;2.30;;;;;;;19.27;75.13;101775.91;2087055;28;20056;-69
2022/08/12 04:16:33;;;;;;;10.38;2.20;;;;;;;19.31;74.66;101780.44;2085899;28;20033;-68
2022/08/12 04:17:41;;;;;;;3.65;2.00;;;;;;;19.36;74.37;101776.81;2089924;28;20048;-68
2022/08/12 04:18:46;;;;;;;3.53;1.75;;;;;;;19.43;74.20;101774.44;2096062;28;20036;-68
2022/08/12 04:19:48;;;;;;;6.47;1.88;;;;;;;19.49;74.19;101772.41;2096953;28;20029;-68
2022/08/12 04:20:51;;;;;;;4.93;2.25;;;;;;;19.58;73.76;101776.03;2113037;28;20494;-68
2022/08/12 04:21:56;;;;;;;7.32;1.92;;;;;;;19.67;73.87;101780.44;2108091;28;20054;-68
2022/08/12 04:22:59;;;;;;;6.78;2.38;;;;;;;19.75;73.59;101775.34;2063751;28;20030;-68
2022/08/12 04:24:03;;;;;;;4.57;2.13;;;;;;;19.80;73.36;101773.31;2080654;28;20045;-68
2022/08/12 04:25:09;;;;;;;3.85;2.05;;;;;;;19.89;73.08;101778.81;2095317;28;20036;-68
2022/08/12 04:26:16;;;;;;;4.97;2.25;;;;;;;19.97;72.92;101777.25;2093611;28;20036;-67
2022/08/12 04:27:18;;;;;;;4.93;1.98;;;;;;;20.04;72.54;101777.63;2087632;28;20548;-67
2022/08/12 04:28:29;;;;;;;7.13;2.08;;;;;;;20.08;72.06;101770.41;2087797;28;20049;-68
2022/08/12 04:29:30;;;;;;;4.93;2.30;;;;;;;20.17;72.03;101786.84;2094650;28;20064;-68
2022/08/12 04:30:33;;;;;;;5.75;2.13;;;;;;;20.22;71.76;101783.97;2095232;28;20407;-68
2022/08/12 04:31:38;;;;;;;4.82;2.00;;;;;;;20.29;71.48;101770.66;2094679;28;20539;-67
2022/08/12 04:32:46;;;;;;;3.95;2.00;;;;;;;20.37;71.56;101773.44;2087274;28;20041;-68
2022/08/12 04:33:48;;;;;;;3.15;1.92;;;;;;;20.45;71.01;101766.38;2095831;28;20032;-67
2022/08/12 04:34:54;;;;;;;4.55;2.00;;;;;;;20.52;69.90;101772.25;2095449;28;20032;-67
2022/08/12 04:35:58;;;;;;;4.88;2.40;;;;;;;20.60;69.10;101770.66;2087164;28;20123;-67
2022/08/12 04:37:00;;;;;;;4.82;2.40;;;;;;;20.68;67.54;101774.53;2087466;28;20041;-67
2022/08/12 04:38:09;;;;;;;4.82;2.42;;;;;;;20.80;67.40;101782.94;2095265;28;20055;-67
2022/08/12 04:39:12;;;;;;;7.13;2.63;;;;;;;20.86;66.28;101776.19;2095334;28;20141;-66
2022/08/12 04:40:16;;;;;;;9.27;2.70;;;;;;;20.91;65.53;101778.78;2086816;28;20056;-67
2022/08/12 04:41:19;;;;;;;6.07;2.78;;;;;;;20.97;64.89;101777.50;2087425;28;20412;-66
2022/08/12 04:42:27;;;;;;;7.88;3.30;;;;;;;21.05;64.68;101773.16;2095836;28;20040;-67
2022/08/12 04:43:32;;;;;;;4.10;2.92;;;;;;;21.11;63.77;101771.88;2095215;28;20526;-67
2022/08/12 04:44:37;;;;;;;5.95;2.90;;;;;;;21.21;63.43;101776.22;2094780;28;20511;-67
2022/08/12 04:45:42;;;;;;;6.28;3.33;;;;;;;21.21;62.75;101774.28;2089900;28;20052;-67
2022/08/12 04:46:47;;;;;;;5.32;3.55;;;;;;;21.27;62.11;101772.22;2091877;28;20047;-67
2022/08/12 04:47:49;;;;;;;10.63;3.78;;;;;;;21.30;61.68;101768.84;2086635;28;20033;-67
2022/08/12 04:48:53;;;;;;;5.93;3.42;;;;;;;21.37;61.88;101773.84;2095311;28;20036;-67
2022/08/12 04:49:59;;;;;;;7.43;3.42;;;;;;;21.48;62.26;101769.69;2103522;28;20419;-66
2022/08/12 04:51:04;;;;;;;8.10;3.17;;;;;;;21.50;61.86;101775.63;2102919;28;20533;-67
2022/08/12 04:52:12;;;;;;;7.18;3.20;;;;;;;21.56;61.29;101773.53;2103249;28;20062;-67
2022/08/12 04:53:15;;;;;;;8.07;3.58;;;;;;;21.61;61.26;101767.88;2084488;28;20048;-66
2022/08/12 04:54:21;;;;;;;9.18;3.72;;;;;;;21.66;61.18;101773.22;2075364;28;20058;-66
2022/08/12 04:55:27;;;;;;;7.47;3.38;;;;;;;21.69;60.85;101776.09;2085062;28;20594;-68
2022/08/12 04:56:30;;;;;;;8.82;3.30;;;;;;;21.77;60.87;101770.94;2095024;28;20032;-67
2022/08/12 04:57:32;;;;;;;6.72;3.65;;;;;;;21.84;60.80;101777.50;2086199;28;20025;-67
2022/08/12 04:58:40;;;;;;;8.30;3.38;;;;;;;21.92;60.77;101771.22;2085245;28;20033;-67
2022/08/12 04:59:45;;;;;;;6.55;3.33;;;;;;;21.98;59.47;101771.84;2103438;28;20044;-67
2022/08/12 05:00:52;;;;;;;10.65;3.72;;;;;;;22.07;59.85;101769.91;2103415;28;20040;-67
2022/08/12 05:01:56;;;;;;;8.38;3.35;;;;;;;22.18;59.71;101768.41;2094981;28;20412;-67
2022/08/12 05:03:00;;;;;;;5.30;3.38;;;;;;;22.23;59.08;101769.41;2094871;28;20392;-68
2022/08/12 05:04:06;;;;;;;6.10;3.15;;;;;;;22.32;58.39;101770.97;2092751;28;20055;-67
2022/08/12 05:05:17;;;;;;;14.02;3.78;;;;;;;22.38;58.86;101772.38;2086633;28;20117;-67
2022/08/12 05:06:24;;;;;;;8.30;4.28;;;;;;;22.45;58.45;101771.88;2085636;28;20045;-67
2022/08/12 05:07:29;;;;;;;7.35;3.58;;;;;;;22.51;58.15;101772.47;2084454;28;20045;-67
2022/08/12 05:08:32;;;;;;;5.13;2.97;;;;;;;22.60;57.60;101773.22;2090833;28;20039;-65
2022/08/12 05:09:34;;;;;;;4.20;2.83;;;;;;;22.66;57.24;101772.72;2095453;28;20036;-66
2022/08/12 05:10:36;;;;;;;9.70;3.88;;;;;;;22.68;56.96;101775.13;2083006;28;20041;-68
2022/08/12 05:11:41;;;;;;;4.90;3.15;;;;;;;22.70;56.84;101772.88;2089013;28;20040;-68
2022/08/12 05:12:52;;;;;;;5.20;3.90;;;;;;;22.79;57.28;101767.31;2092795;28;20095;-67
2022/08/12 05:14:01;;;;;;;11.18;3.45;;;;;;;22.84;56.45;101767.13;2092625;28;20051;-67
2022/08/12 05:15:04;;;;;;;9.00;3.58;;;;;;;22.89;56.20;101767.75;2086314;28;20493;-68
2022/08/12 05:16:07;;;;;;;6.00;2.97;;;;;;;22.97;56.42;101763.34;2076542;28;20052;-67
2022/08/12 05:17:11;;;;;;;4.43;2.90;;;;;;;23.03;55.91;101766.72;2086984;28;20120;-68
2022/08/12 05:18:19;;;;;;;8.20;3.67;;;;;;;23.11;55.79;101771.34;2101069;28;20047;-68
2022/08/12 05:19:21;;;;;;;5.97;3.58;;;;;;;23.20;55.28;101766.56;2102252;28;20040;-67
2022/08/12 05:20:28;;;;;;;5.13;3.10;;;;;;;23.30;55.13;101773.63;2094551;28;20060;-67
2022/08/12 05:21:30;;;;;;;5.03;3.25;;;;;;;23.33;55.02;101776.50;2090846;28;20033;-67
2022/08/12 05:22:32;;;;;;;6.55;2.95;;;;;;;23.33;54.60;101768.25;2094956;28;20605;-67
2022/08/12 05:23:39;;;;;;;4.43;2.47;;;;;;;23.40;54.56;101775.16;2093855;28;20048;-66
2022/08/12 05:24:43;;;;;;;9.18;2.90;;;;;;;23.51;54.41;101771.63;2087494;28;20045;-67
2022/08/12 05:25:48;;;;;;;7.47;2.85;;;;;;;23.58;54.12;101771.09;2094959;28;20032;-68
2022/08/12 05:26:53;;;;;;;6.03;2.83;;;;;;;23.61;53.63;101775.91;2094907;28;20033;-68
2022/08/12 05:27:55;;;;;;;6.57;2.78;;;;;;;23.66;53.59;101772.97;2103592;28;20050;-66
2022/08/12 05:28:57;;;;;;;8.80;2.50;;;;;;;23.72;53.08;101766.13;2102289;28;20475;-68
2022/08/12 05:30:02;;;;;;;5.05;2.40;;;;;;;23.75;52.87;101770.97;2094890;28;20067;-68
2022/08/12 05:31:05;;;;;;;4.45;2.63;;;;;;;23.83;52.67;101774.75;2094921;28;20044;-70
2022/08/12 05:32:10;;;;;;;6.85;2.95;;;;;;;23.87;52.73;101772.16;2095371;28;20044;-68
2022/08/12 05:33:12;;;;;;;5.45;2.25;;;;;;;23.87;52.42;101767.44;2094909;28;21035;-70
2022/08/12 05:34:14;;;;;;;4.90;2.20;;;;;;;23.85;51.66;101779.91;2083189;28;20047;-69
2022/08/12 05:35:16;;;;;;;3.35;2.05;;;;;;;23.79;51.66;101771.09;2094916;28;20043;-69
2022/08/12 05:36:21;;;;;;;3.63;1.80;;;;;;;23.83;51.91;101774.75;2102359;28;20414;-68
2022/08/12 05:37:24;;;;;;;4.90;2.40;;;;;;;23.86;52.48;101778.75;2085960;28;20047;-68
2022/08/12 05:39:47;;;;;;;5.32;2.15;;;;;;;23.85;51.69;101774.41;2094285;28;20036;-68
2022/08/12 05:40:52;;;;;;;4.03;2.40;;;;;;;23.95;51.53;101777.53;2094850;28;20439;-69
2022/08/12 05:41:57;;;;;;;5.07;2.20;;;;;;;24.09;51.94;101777.22;2086987;28;20032;-66
2022/08/12 05:43:01;;;;;;;4.70;1.73;;;;;;;24.09;51.23;101774.47;2085795;28;20424;-62
2022/08/12 05:44:08;;;;;;;6.70;2.20;;;;;;;24.09;51.58;101788.22;2094761;28;20044;-67
2022/08/12 05:45:13;;;;;;;5.25;2.10;;;;;;;24.11;50.69;101785.91;2087230;28;20056;-67
2022/08/12 05:46:21;;;;;;;6.22;2.60;;;;;;;24.20;50.66;101775.63;2078709;28;20058;-67
2022/08/12 05:47:27;;;;;;;4.07;2.40;;;;;;;24.33;50.84;101773.69;2088265;28;20454;-67
2022/08/12 05:48:31;;;;;;;5.60;2.30;;;;;;;24.41;50.83;101780.22;2103925;28;20048;-67
2022/08/12 05:49:39;;;;;;;9.75;2.50;;;;;;;24.47;50.68;101778.91;2087573;28;20037;-67
2022/08/12 05:50:45;;;;;;;5.18;2.60;;;;;;;24.50;50.50;101781.75;2073463;28;20049;-67
2022/08/12 05:51:49;;;;;;;8.25;2.63;;;;;;;24.56;50.18;101779.59;2079864;28;20053;-68
2022/08/12 05:52:56;;;;;;;3.75;2.10;;;;;;;24.67;50.12;101774.41;2097029;28;20040;-68
2022/08/12 05:54:01;;;;;;;6.78;2.58;;;;;;;24.71;50.15;101778.88;2094840;28;20040;-68
2022/08/12 05:55:09;;;;;;;5.20;2.15;;;;;;;24.71;49.83;101775.31;2064739;28;20042;-68
2022/08/12 05:56:25;;;;;;;2.42;1.90;;;;;;;24.87;50.06;101780.91;2082663;28;20045;-68
2022/08/12 05:57:28;;;;;;;9.73;2.33;;;;;;;24.92;49.46;101783.44;2095961;28;20048;-67
2022/08/12 05:58:31;;;;;;;8.02;2.28;;;;;;;25.00;49.47;101774.25;2104451;28;20064;-66
2022/08/12 05:59:33;;;;;;;6.82;1.88;;;;;;;25.12;49.53;101778.91;2103890;28;20526;-68
2022/08/12 06:00:37;;;;;;;3.97;2.05;;;;;;;25.14;48.20;101771.94;2095717;28;20040;-67
2022/08/12 06:01:45;;;;;;;6.57;2.45;;;;;;;25.16;48.34;101780.66;2087103;28;20033;-67
2022/08/12 06:02:49;;;;;;;5.78;1.90;;;;;;;25.28;48.25;101773.50;2103893;28;20046;-67
2022/08/12 06:03:51;;;;;;;4.93;1.98;;;;;;;25.41;47.71;101781.38;2101249;28;20028;-68
2022/08/12 06:04:59;;;;;;;8.95;2.45;;;;;;;25.41;47.31;101777.84;2086457;28;20097;-68
2022/08/12 06:06:02;;;;;;;4.20;1.75;;;;;;;25.39;47.25;101775.41;2078607;28;20034;-68
2022/08/12 06:07:07;;;;;;;3.60;2.45;;;;;;;25.49;47.61;101779.63;2085937;28;20104;-68
2022/08/12 06:08:16;;;;;;;6.80;2.00;;;;;;;25.60;47.04;101782.69;2086978;28;20033;-68
2022/08/12 06:09:21;;;;;;;5.47;2.05;;;;;;;25.66;46.38;101779.31;2086639;28;20048;-68
2022/08/12 06:10:23;;;;;;;4.95;1.73;;;;;;;25.81;46.77;101783.28;2078032;28;20048;-68
2022/08/12 06:11:31;;;;;;;2.03;1.80;;;;;;;25.92;46.33;101780.81;2085865;28;20044;-68
2022/08/12 06:12:33;;;;;;;2.58;1.80;;;;;;;25.96;45.88;101787.22;2079147;28;20143;-68
2022/08/12 06:13:38;;;;;;;2.75;1.50;;;;;;;25.98;45.90;101782.16;2085881;28;20080;-68
2022/08/12 06:14:43;;;;;;;2.28;1.30;;;;;;;26.03;44.67;101787.41;2083459;28;20045;-68
2022/08/12 06:15:46;;;;;;;2.78;1.40;;;;;;;26.14;45.14;101784.13;2078375;28;20048;-68
2022/08/12 06:16:54;;;;;;;4.43;1.40;;;;;;;26.08;44.69;101787.16;2095346;28;20444;-68
2022/08/12 06:18:06;;;;;;;2.72;1.55;;;;;;;25.98;44.34;101790.44;2107715;28;20609;-68
2022/08/12 06:19:10;;;;;;;3.13;1.52;;;;;;;26.09;44.74;101793.47;2103815;28;20040;-68
2022/08/12 06:20:18;;;;;;;1.98;1.40;;;;;;;26.24;44.55;101781.63;2102776;28;20039;-68
2022/08/12 06:21:22;;;;;;;3.63;1.63;;;;;;;26.32;44.45;101788.13;2095205;28;20036;-68
2022/08/12 06:22:25;;;;;;;4.43;1.45;;;;;;;26.33;44.22;101785.00;2094751;28;20048;-68
2022/08/12 06:23:32;;;;;;;3.95;1.80;;;;;;;26.26;43.93;101786.78;2100712;28;20055;-69
2022/08/12 06:24:34;;;;;;;3.03;1.50;;;;;;;26.38;44.15;101785.91;2087110;28;20047;-68
2022/08/12 06:25:37;;;;;;;2.63;1.38;;;;;;;26.39;44.18;101788.31;2086882;28;20124;-68
2022/08/12 06:26:40;;;;;;;4.13;1.40;;;;;;;26.50;44.26;101794.09;2103295;28;20040;-68
2022/08/12 06:27:47;;;;;;;9.32;2.20;;;;;;;26.70;44.21;101782.00;2100220;28;20059;-67
2022/08/12 06:28:53;;;;;;;3.88;1.50;;;;;;;26.70;43.74;101779.22;2102275;28;20043;-68
2022/08/12 06:29:57;;;;;;;5.95;1.65;;;;;;;26.96;43.88;101783.34;2094866;28;20048;-67
2022/08/12 06:31:00;;;;;;;4.75;1.60;;;;;;;27.18;43.60;101782.66;2095406;28;20436;-67
2022/08/12 06:32:10;;;;;;;3.92;1.80;;;;;;;27.32;42.84;101775.84;2078700;28;20061;-67
2022/08/12 06:33:13;;;;;;;6.30;1.67;;;;;;;27.28;42.34;101773.00;2081590;28;20060;-68
2022/08/12 06:34:16;;;;;;;5.65;1.50;;;;;;;27.36;42.17;101776.69;2092441;28;20054;-68
2022/08/12 06:35:25;;;;;;;4.07;1.75;;;;;;;27.45;42.41;101778.06;2078843;28;20484;-68
2022/08/12 06:36:26;;;;;;;3.25;1.40;;;;;;;27.41;41.97;101779.19;2080015;28;20057;-67
2022/08/12 06:37:29;;;;;;;5.38;1.60;;;;;;;27.29;42.58;101769.06;2087285;28;20048;-68